Time;durP1;ratioP1;P1;durP2;ratioP2;P2;SDS_P1;SDS_P2;PMS_P1;PMS_P2;Temp;Humidity;BMP_temperature;BMP_pressure;BME280_temperature;BME280_humidity;BME280_pressure;Samples;Min_cycle;Max_cycle;Signal;HPM_P1;HPM_P2
2021/03/17 00:00:24;;;;;;;;;;;179.30;1971.20;;;;;;5058576;28;20361;-82
2021/03/17 00:02:50;;;;;;;9.98;6.22;;;179.30;1971.20;;;;;;5057800;28;19935;-82
2021/03/17 00:05:29;;;;;;;;;;;179.40;1945.60;;;;;;5075205;28;20369;-82
2021/03/17 00:07:55;;;;;;;13.25;5.40;;;179.20;1971.20;;;;;;5058037;28;19908;-82
2021/03/17 00:10:21;;;;;;;;;;;179.20;1971.20;;;;;;5058484;28;20054;-82
2021/03/17 00:12:49;;;;;;;9.85;5.22;;;154.50;1971.20;;;;;;5057728;28;19966;-82
2021/03/17 00:15:19;;;;;;;7.57;5.25;;;154.50;1996.80;;;;;;5057402;28;20068;-81
2021/03/17 00:17:44;;;;;;;11.70;4.93;;;154.30;2022.40;;;;;;5057080;28;20060;-83
2021/03/17 00:20:10;;;;;;;;;;;154.40;2022.40;;;;;;5057813;28;20428;-81
2021/03/17 00:22:36;;;;;;;9.07;5.80;;;154.40;1996.80;;;;;;5057953;28;19909;-82
2021/03/17 00:25:02;;;;;;;;;;;154.40;1996.80;;;;;;5058242;28;20017;-82
2021/03/17 00:27:28;;;;;;;11.35;5.68;;;154.30;1996.80;;;;;;5057562;28;20391;-83
2021/03/17 00:29:53;;;;;;;;;;;154.30;1996.80;;;;;;5057962;28;20027;-82
2021/03/17 00:32:19;;;;;;;9.65;5.32;;;154.20;2022.40;;;;;;5057010;28;19914;-82
2021/03/17 00:34:44;;;;;;;;;;;154.10;2048.00;;;;;;5054079;28;20025;-82
2021/03/17 00:37:17;;;;;;;8.05;4.50;;;154.20;2022.40;;;;;;5036644;28;20054;-81
2021/03/17 00:39:43;;;;;;;8.65;5.00;;;154.20;2022.40;;;;;;5033004;28;20044;-81
2021/03/17 00:42:09;;;;;;;8.23;5.40;;;154.20;2022.40;;;;;;5016526;28;20175;-80
2021/03/17 00:44:35;;;;;;;11.70;6.35;;;154.50;2022.40;;;;;;5016209;28;20375;-83
2021/03/17 00:47:01;;;;;;;;;;;154.10;2022.40;;;;;;5016635;28;20071;-81
2021/03/17 00:49:26;;;;;;;7.80;5.30;;;154.20;2022.40;;;;;;5016325;28;19909;-82
2021/03/17 00:51:52;;;;;;;;;;;154.20;2022.40;;;;;;5017006;28;20026;-82
2021/03/17 00:54:19;;;;;;;10.00;5.63;;;154.20;2022.40;;;;;;5015375;28;19924;-81
2021/03/17 00:56:44;;;;;;;12.82;5.40;;;154.00;2048.00;;;;;;5016698;28;20030;-81
2021/03/17 00:59:10;;;;;;;;;;;154.10;2048.00;;;;;;5033147;28;20054;-82
2021/03/17 01:01:36;;;;;;;9.43;5.43;;;154.10;2022.40;;;;;;5032573;28;19905;-83
2021/03/17 01:04:01;;;;;;;;;;;154.30;2022.40;;;;;;5032647;28;20129;-82
2021/03/17 01:06:27;;;;;;;8.10;5.20;;;154.30;2022.40;;;;;;5032708;28;19913;-81
2021/03/17 01:08:53;;;;;;;;;;;154.30;2022.40;;;;;;5016509;28;20029;-81
2021/03/17 01:11:18;;;;;;;9.52;4.68;;;154.30;2022.40;;;;;;5036648;28;20391;-82
2021/03/17 01:13:44;;;;;;;;;;;154.10;2048.00;;;;;;5051868;28;20027;-82
2021/03/17 01:16:10;;;;;;;10.02;5.25;;;154.10;2048.00;;;;;;5056876;28;19911;-83
2021/03/17 01:18:36;;;;;;;;;;;154.00;2048.00;;;;;;5056896;28;20070;-82
2021/03/17 01:21:02;;;;;;;6.40;4.75;;;154.10;2048.00;;;;;;5056450;28;19911;-81
2021/03/17 01:23:28;;;;;;;8.15;4.80;;;153.70;2048.00;;;;;;5056189;28;20077;-81
2021/03/17 01:25:54;;;;;;;;;;;154.00;2048.00;;;;;;5056454;28;20501;-81
2021/03/17 01:28:19;;;;;;;8.32;4.70;;;154.00;2048.00;;;;;;5056113;28;19904;-80
2021/03/17 01:30:46;;;;;;;;;;;153.90;2048.00;;;;;;5055847;28;20064;-81
2021/03/17 01:33:13;;;;;;;9.80;4.70;;;153.90;2073.60;;;;;;5056032;28;19904;-82
2021/03/17 01:35:41;;;;;;;8.00;5.15;;;153.90;2073.60;;;;;;5055479;28;20524;-83
2021/03/17 01:38:07;;;;;;;8.98;5.22;;;153.80;2073.60;;;;;;5073995;28;20090;-82
2021/03/17 01:40:36;;;;;;;10.27;5.55;;;153.80;2073.60;;;;;;5056211;28;20028;-82
2021/03/17 01:43:01;;;;;;;17.38;7.65;;;153.80;2073.60;;;;;;5056366;28;20056;-83
2021/03/17 01:45:27;;;;;;;;;;;153.60;2099.20;;;;;;5056080;28;20055;-81
2021/03/17 01:47:53;;;;;;;12.27;5.90;;;153.70;2099.20;;;;;;5055855;28;20394;-82
2021/03/17 01:50:34;;;;;;;9.68;5.55;;;153.70;2099.20;;;;;;5055947;28;20033;-82
2021/03/17 01:53:09;;;;;;;7.90;5.28;;;153.70;2073.60;;;;;;5063955;28;20122;-83
2021/03/17 01:55:37;;;;;;;7.43;5.45;;;153.70;2099.20;;;;;;5093163;28;20116;-81
2021/03/17 01:58:03;;;;;;;10.48;4.75;;;153.80;2073.60;;;;;;5092192;28;20028;-82
2021/03/17 02:00:30;;;;;;;7.65;4.95;;;153.90;2073.60;;;;;;5076066;28;20070;-82
2021/03/17 02:02:56;;;;;;;10.40;5.53;;;153.70;2099.20;;;;;;5072849;28;20029;-82
2021/03/17 02:05:25;;;;;;;8.77;5.80;;;153.80;2099.20;;;;;;5075258;28;20016;-81
2021/03/17 02:07:55;;;;;;;10.32;5.50;;;153.60;2099.20;;;;;;5074960;28;20100;-81
2021/03/17 02:10:23;;;;;;;9.32;6.32;;;153.60;2099.20;;;;;;5074465;28;20053;-82
2021/03/17 02:13:16;;;;;;;10.20;6.05;;;153.60;2124.80;;;;;;5068608;28;20400;-83
2021/03/17 02:16:01;;;;;;;7.32;5.30;;;153.60;2099.20;;;;;;5073321;28;20033;-83
2021/03/17 02:18:39;;;;;;;11.88;5.63;;;128.80;2124.80;;;;;;5055790;28;20031;-82
2021/03/17 02:21:15;;;;;;;9.30;5.53;;;128.80;2124.80;;;;;;5073530;28;20028;-83
2021/03/17 02:23:44;;;;;;;9.95;5.80;;;128.70;2150.40;;;;;;5073719;28;20551;-82
2021/03/17 02:26:30;;;;;;;10.07;5.93;;;128.70;2124.80;;;;;;5073783;28;20044;-83
2021/03/17 02:29:18;;;;;;;11.00;5.83;;;128.60;2124.80;;;;;;5073764;28;20040;-81
2021/03/17 02:32:14;;;;;;;9.15;6.45;;;128.60;2124.80;;;;;;5055894;28;20292;-82
2021/03/17 02:34:46;;;;;;;9.07;5.57;;;128.60;2124.80;;;;;;5058119;28;20029;-83
2021/03/17 02:37:21;;;;;;;9.43;4.82;;;128.50;2150.40;;;;;;5093746;28;20065;-82
2021/03/17 02:39:57;;;;;;;7.90;5.70;;;128.80;2124.80;;;;;;5075927;28;20426;-82
2021/03/17 02:42:37;;;;;;;11.18;6.10;;;128.60;2150.40;;;;;;5076033;28;20061;-82
2021/03/17 02:45:10;;;;;;;9.70;5.88;;;128.50;2124.80;;;;;;5075594;28;20024;-83
2021/03/17 02:47:52;;;;;;;10.77;6.43;;;128.50;2124.80;;;;;;5093623;28;20032;-83
2021/03/17 02:50:20;;;;;;;9.20;5.60;;;128.50;2124.80;;;;;;5075632;28;20531;-81
2021/03/17 02:52:51;;;;;;;11.63;6.07;;;128.50;2124.80;;;;;;5093162;28;20048;-81
2021/03/17 02:55:20;;;;;;;9.05;5.28;;;128.60;2124.80;;;;;;5059325;28;20480;-82
2021/03/17 02:57:48;;;;;;;10.18;5.57;;;128.50;2124.80;;;;;;5075463;28;20032;-82
2021/03/17 03:00:15;;;;;;;11.90;5.75;;;128.50;2124.80;;;;;;5075360;28;20083;-82
2021/03/17 03:02:43;;;;;;;9.82;5.93;;;128.70;2099.20;;;;;;5075350;28;20058;-83
2021/03/17 03:05:12;;;;;;;10.25;5.28;;;128.60;2124.80;;;;;;5093221;28;20032;-83
2021/03/17 03:07:39;;;;;;;11.20;5.55;;;128.60;2124.80;;;;;;5075619;28;20036;-82
2021/03/17 03:10:10;;;;;;;9.65;6.25;;;128.60;2124.80;;;;;;5093293;28;20020;-83
2021/03/17 03:12:37;;;;;;;10.23;5.40;;;128.60;2099.20;;;;;;5075146;28;20028;-83
2021/03/17 03:15:06;;;;;;;9.50;5.72;;;128.60;2099.20;;;;;;5075222;28;20513;-83
2021/03/17 03:17:35;;;;;;;10.93;6.03;;;128.70;2099.20;;;;;;5074787;28;20035;-83
2021/03/17 03:20:04;;;;;;;9.65;5.63;;;128.60;2099.20;;;;;;5075515;28;20032;-83
2021/03/17 03:22:30;;;;;;;11.70;6.18;;;128.50;2124.80;;;;;;5075303;28;20063;-82
2021/03/17 03:24:56;;;;;;;;;;;128.60;2099.20;;;;;;5075294;28;20373;-83
2021/03/17 03:27:23;;;;;;;11.18;6.15;;;128.60;2099.20;;;;;;5077802;28;19922;-83
2021/03/17 03:29:51;;;;;;;13.02;7.57;;;128.70;2099.20;;;;;;5078618;28;20574;-82
2021/03/17 03:32:17;;;;;;;59.15;45.17;;;128.80;2099.20;;;;;;5078801;28;20020;-82
2021/03/17 03:34:42;;;;;;;;;;;128.60;2099.20;;;;;;5078714;28;20027;-84
2021/03/17 03:37:08;;;;;;;15.48;8.40;;;128.60;2099.20;;;;;;5096827;28;19904;-82
2021/03/17 03:39:34;;;;;;;;;;;128.60;2099.20;;;;;;5078898;28;20491;-83
2021/03/17 03:42:00;;;;;;;10.88;6.03;;;128.50;2124.80;;;;;;5096553;28;19908;-83
2021/03/17 03:44:26;;;;;;;;;;;128.40;2124.80;;;;;;5078850;28;20035;-82
2021/03/17 03:46:51;;;;;;;8.32;5.78;;;128.60;2099.20;;;;;;5096554;28;19974;-83
2021/03/17 03:49:17;;;;;;;;;;;128.40;2124.80;;;;;;5079275;28;20031;-83
2021/03/17 03:51:54;;;;;;;10.25;5.85;;;128.30;2124.80;;;;;;5078694;28;19953;-83
2021/03/17 03:54:48;;;;;;;11.40;7.32;;;128.30;2150.40;;;;;;5096138;28;20056;-83
2021/03/17 03:57:27;;;;;;;10.80;6.40;;;128.30;2150.40;;;;;;5078495;28;20028;-83
2021/03/17 04:00:00;;;;;;;11.57;6.43;;;128.30;2150.40;;;;;;5070247;28;20043;-83
2021/03/17 04:02:33;;;;;;;8.75;5.97;;;128.40;2124.80;;;;;;5078391;28;20024;-82
2021/03/17 04:05:00;;;;;;;12.05;6.57;;;128.40;2124.80;;;;;;5096349;28;20061;-83
2021/03/17 04:07:27;;;;;;;10.88;6.25;;;128.40;2124.80;;;;;;5096126;28;20421;-82
2021/03/17 04:09:55;;;;;;;9.93;5.90;;;128.30;2150.40;;;;;;5078002;28;20027;-83
2021/03/17 04:12:23;;;;;;;12.90;6.30;;;128.40;2124.80;;;;;;5074496;28;20480;-83
2021/03/17 04:14:54;;;;;;;10.02;5.93;;;128.40;2150.40;;;;;;5057762;28;20033;-83
2021/03/17 04:17:25;;;;;;;9.50;5.72;;;128.50;2150.40;;;;;;5058135;28;20032;-83
2021/03/17 04:19:57;;;;;;;10.23;6.43;;;128.50;2150.40;;;;;;5058011;28;20039;-83
2021/03/17 04:22:26;;;;;;;9.55;5.93;;;128.40;2124.80;;;;;;5057455;28;20028;-83
2021/03/17 04:24:53;;;;;;;10.77;6.25;;;128.30;2150.40;;;;;;5057523;28;20504;-84
2021/03/17 04:27:21;;;;;;;12.98;6.85;;;128.20;2176.00;;;;;;5075282;28;20074;-83
2021/03/17 04:29:48;;;;;;;11.57;6.20;;;128.20;2176.00;;;;;;5057642;28;20029;-83
2021/03/17 04:32:16;;;;;;;12.13;6.80;;;128.20;2176.00;;;;;;5057737;28;20094;-82
2021/03/17 04:34:44;;;;;;;10.80;5.78;;;128.20;2176.00;;;;;;5056796;28;20036;-83
2021/03/17 04:37:10;;;;;;;12.82;6.53;;;128.30;2176.00;;;;;;5057682;28;20035;-83
2021/03/17 04:39:36;;;;;;;;;;;128.30;2150.40;;;;;;5057592;28;20392;-86
2021/03/17 04:42:02;;;;;;;11.70;5.93;;;128.40;2150.40;;;;;;5057437;28;19912;-85
2021/03/17 04:44:28;;;;;;;;;;;128.30;2150.40;;;;;;5057868;28;20157;-85
2021/03/17 04:46:54;;;;;;;11.48;5.72;;;128.00;2201.60;;;;;;5057085;28;19912;-83
2021/03/17 04:49:22;;;;;;;11.02;5.90;;;128.20;2176.00;;;;;;5075129;28;20067;-85
2021/03/17 04:51:48;;;;;;;13.10;7.22;;;128.30;2176.00;;;;;;5057273;28;20044;-85
2021/03/17 04:54:15;;;;;;;10.00;6.20;;;128.10;2176.00;;;;;;5056936;28;20048;-85
2021/03/17 04:56:43;;;;;;;15.15;7.43;;;128.20;2176.00;;;;;;5056673;28;20035;-80
2021/03/17 04:59:15;;;;;;;13.48;6.63;;;128.20;2176.00;;;;;;5075097;28;20420;-83
2021/03/17 05:01:43;;;;;;;11.20;6.18;;;128.10;2201.60;;;;;;5056669;28;20492;-85
2021/03/17 05:04:11;;;;;;;12.10;6.25;;;128.10;2201.60;;;;;;5056955;28;20055;-86
2021/03/17 05:06:38;;;;;;;13.95;7.00;;;128.10;2201.60;;;;;;5074892;28;20064;-85
2021/03/17 05:09:05;;;;;;;14.70;6.85;;;128.00;2201.60;;;;;;5057150;28;20021;-86
2021/03/17 05:11:32;;;;;;;20.20;7.70;;;128.10;2176.00;;;;;;5074531;28;20024;-85
2021/03/17 05:13:59;;;;;;;11.60;5.80;;;128.10;2201.60;;;;;;5090787;28;20063;-85
2021/03/17 05:16:26;;;;;;;12.60;7.13;;;128.20;2201.60;;;;;;5094744;28;20020;-84
2021/03/17 05:18:53;;;;;;;14.85;6.25;;;128.20;2201.60;;;;;;5095003;28;20020;-85
2021/03/17 05:21:19;;;;;;;10.73;6.60;;;128.10;2201.60;;;;;;5094951;28;20024;-84
2021/03/17 05:23:44;;;;;;;;;;;128.20;2201.60;;;;;;5095199;28;20035;-84
2021/03/17 05:26:11;;;;;;;16.30;7.68;;;128.20;2176.00;;;;;;5076918;28;19919;-83
2021/03/17 05:28:40;;;;;;;13.68;6.65;;;128.30;2176.00;;;;;;5076509;28;20028;-78
2021/03/17 05:31:08;;;;;;;13.55;6.63;;;128.40;2150.40;;;;;;5093594;28;20024;-80
2021/03/17 05:33:34;;;;;;;14.43;7.45;;;128.30;2150.40;;;;;;5094367;28;20091;-81
2021/03/17 05:36:00;;;;;;;23.45;11.00;;;128.00;2201.60;;;;;;5093867;28;20035;-80
2021/03/17 05:38:26;;;;;;;;;;;103.20;2227.20;;;;;;5076671;28;20020;-82
2021/03/17 05:40:55;;;;;;;14.23;7.57;;;128.10;2201.60;;;;;;5094492;28;19911;-84
2021/03/17 05:43:22;;;;;;;14.05;6.85;;;128.00;2201.60;;;;;;5076260;28;20024;-84
2021/03/17 05:45:48;;;;;;;11.50;6.82;;;128.00;2201.60;;;;;;5092867;28;20020;-79
2021/03/17 05:48:16;;;;;;;14.48;7.03;;;128.00;2201.60;;;;;;5093285;28;20051;-84
2021/03/17 05:50:42;;;;;;;12.63;5.80;;;128.00;2227.20;;;;;;5076048;28;20028;-82
2021/03/17 05:53:09;;;;;;;11.50;6.65;;;128.00;2201.60;;;;;;5078346;28;20054;-81
2021/03/17 05:55:37;;;;;;;11.35;6.10;;;128.00;2201.60;;;;;;5062591;28;20090;-81
2021/03/17 05:58:04;;;;;;;12.27;6.90;;;128.00;2201.60;;;;;;5073948;28;20025;-82
2021/03/17 06:00:30;;;;;;;12.93;7.68;;;128.10;2201.60;;;;;;5055714;28;20036;-82
2021/03/17 06:02:56;;;;;;;;;;;128.10;2176.00;;;;;;5053156;28;20104;-81
2021/03/17 06:05:24;;;;;;;11.88;6.80;;;128.20;2176.00;;;;;;5053549;28;19909;-81
2021/03/17 06:07:52;;;;;;;15.18;8.65;;;128.20;2201.60;;;;;;5053220;28;20412;-80
2021/03/17 06:10:19;;;;;;;22.60;11.45;;;128.10;2201.60;;;;;;5035534;28;20017;-81
2021/03/17 06:12:50;;;;;;;24.73;13.50;;;128.00;2227.20;;;;;;5035266;28;20029;-81
2021/03/17 06:15:23;;;;;;;13.82;7.82;;;128.30;2176.00;;;;;;5035676;28;20021;-81
2021/03/17 06:17:55;;;;;;;12.63;7.70;;;128.20;2176.00;;;;;;5053459;28;20029;-82
2021/03/17 06:20:21;;;;;;;13.55;7.63;;;128.40;2150.40;;;;;;5041707;28;20013;-80
2021/03/17 06:22:47;;;;;;;;;;;128.50;2176.00;;;;;;5055639;28;20020;-82
2021/03/17 06:25:14;;;;;;;18.40;8.35;;;128.50;2150.40;;;;;;5055418;28;20323;-82
2021/03/17 06:27:41;;;;;;;13.05;7.25;;;128.60;2150.40;;;;;;5073312;28;20032;-82
2021/03/17 06:30:10;;;;;;;13.38;7.13;;;128.50;2176.00;;;;;;5055474;28;20112;-81
2021/03/17 06:32:35;;;;;;;14.68;7.93;;;128.60;2150.40;;;;;;5072282;28;20504;-81
2021/03/17 06:35:14;;;;;;;35.15;17.27;;;128.80;2150.40;;;;;;5055477;28;20033;-81
2021/03/17 06:37:40;;;;;;;15.63;9.40;;;128.40;2150.40;;;;;;5073450;28;20032;-81
2021/03/17 06:40:26;;;;;;;;;;;128.50;2150.40;;;;;;5073477;28;20082;-81
2021/03/17 06:42:54;;;;;;;14.45;8.02;;;128.60;2124.80;;;;;;5055018;28;19904;-81
2021/03/17 06:45:44;;;;;;;16.05;8.18;;;128.50;2150.40;;;;;;5055008;28;20024;-81
2021/03/17 06:48:28;;;;;;;19.38;12.55;;;128.70;2150.40;;;;;;5073305;28;20040;-80
2021/03/17 06:51:06;;;;;;;15.77;9.93;;;128.70;2124.80;;;;;;5055088;28;20035;-81
2021/03/17 06:53:45;;;;;;;18.10;8.68;;;128.80;2150.40;;;;;;5085883;28;20048;-81
2021/03/17 06:56:14;;;;;;;17.88;9.18;;;128.80;2150.40;;;;;;5068538;28;20043;-81
2021/03/17 06:58:54;;;;;;;15.23;9.48;;;128.80;2150.40;;;;;;5062016;28;20452;-82
2021/03/17 07:01:36;;;;;;;20.60;10.48;;;128.60;2176.00;;;;;;5069191;28;20541;-81
2021/03/17 07:04:19;;;;;;;17.67;9.93;;;128.50;2176.00;;;;;;5072133;28;20107;-80
2021/03/17 07:06:59;;;;;;;19.42;9.43;;;128.40;2201.60;;;;;;5077099;28;20036;-81
2021/03/17 07:09:27;;;;;;;16.80;9.50;;;128.40;2201.60;;;;;;5078556;28;20505;-82
2021/03/17 07:12:13;;;;;;;18.30;9.65;;;128.50;2176.00;;;;;;5076000;28;20124;-82
2021/03/17 07:14:39;;;;;;;15.90;9.68;;;128.60;2150.40;;;;;;5077388;28;20020;-83
2021/03/17 07:17:25;;;;;;;14.52;8.68;;;128.50;2176.00;;;;;;5078423;28;20497;-82
2021/03/17 07:19:51;;;;;;;19.50;10.52;;;128.90;2099.20;;;;;;5076630;28;20028;-80
2021/03/17 07:22:17;;;;;;;;;;;128.90;2124.80;;;;;;5075348;28;20040;-79
2021/03/17 07:24:45;;;;;;;18.00;10.57;;;153.60;2124.80;;;;;;5074636;28;20651;-87
2021/03/17 07:27:15;;;;;;;18.17;9.93;;;153.60;2124.80;;;;;;5074285;28;20044;-81
2021/03/17 07:29:41;;;;;;;23.75;12.63;;;128.90;2150.40;;;;;;5075051;28;20392;-78
2021/03/17 07:32:07;;;;;;;;;;;153.70;2099.20;;;;;;5074962;28;20028;-79
2021/03/17 07:34:33;;;;;;;40.95;18.70;;;128.90;2150.40;;;;;;5075203;28;20356;-79
2021/03/17 07:37:05;;;;;;;33.22;15.63;;;128.80;2176.00;;;;;;5076095;28;20085;-80
2021/03/17 07:39:41;;;;;;;39.92;20.05;;;153.60;2150.40;;;;;;5074448;28;20480;-79
2021/03/17 07:42:12;;;;;;;19.20;10.85;;;153.70;2124.80;;;;;;5074638;28;20055;-80
2021/03/17 07:44:40;;;;;;;28.83;14.45;;;153.80;2124.80;;;;;;5076143;28;20036;-88
2021/03/17 07:47:08;;;;;;;22.88;11.65;;;153.70;2150.40;;;;;;5078660;28;20495;-91
2021/03/17 07:49:35;;;;;;;18.90;11.32;;;153.90;2124.80;;;;;;5078342;28;20023;-89
2021/03/17 07:52:02;;;;;;;21.20;10.68;;;154.00;2124.80;;;;;;5078354;28;20028;-83
2021/03/17 07:54:30;;;;;;;21.63;11.65;;;154.10;2099.20;;;;;;5075786;28;20039;-84
2021/03/17 07:56:57;;;;;;;25.95;13.38;;;154.10;2124.80;;;;;;5076383;28;20107;-86
2021/03/17 07:59:24;;;;;;;24.58;12.93;;;154.40;2124.80;;;;;;5076280;28;20024;-87
2021/03/17 08:01:52;;;;;;;27.65;14.57;;;154.40;2124.80;;;;;;5077015;28;20047;-87
2021/03/17 08:04:18;;;;;;;26.98;13.40;;;154.20;2150.40;;;;;;5096040;28;20024;-87
2021/03/17 08:06:44;;;;;;;22.73;11.63;;;154.40;2124.80;;;;;;5077879;28;20047;-92
2021/03/17 08:09:10;;;;;;;19.90;12.23;;;154.30;2124.80;;;;;;5096452;28;20396;-84
2021/03/17 08:11:37;;;;;;;22.27;12.25;;;179.20;2099.20;;;;;;5077675;28;20051;-85
2021/03/17 08:14:06;;;;;;;19.42;11.52;;;179.20;2073.60;;;;;;5078148;28;20024;-86
2021/03/17 08:16:35;;;;;;;20.48;11.73;;;154.40;2099.20;;;;;;5096071;28;20107;-85
2021/03/17 08:19:01;;;;;;;22.35;11.65;;;179.20;2073.60;;;;;;5078004;28;20055;-86
2021/03/17 08:21:43;;;;;;;;;;;179.20;2099.20;;;;;;5078231;28;20052;-85
2021/03/17 08:24:09;;;;;;;20.15;11.55;;;179.30;2073.60;;;;;;5077911;28;20371;-84
2021/03/17 08:26:34;;;;;;;;;;;179.40;2073.60;;;;;;5077982;28;20066;-85
2021/03/17 08:29:00;;;;;;;19.90;10.93;;;179.60;2048.00;;;;;;5077941;28;19936;-86
2021/03/17 08:31:35;;;;;;;;;;;179.60;2073.60;;;;;;5078393;28;20035;-85
2021/03/17 08:34:20;;;;;;;23.60;13.45;;;179.60;2048.00;;;;;;5077749;28;19904;-84
2021/03/17 08:37:02;;;;;;;21.35;12.57;;;179.60;2073.60;;;;;;5095866;28;20028;-84
2021/03/17 08:39:32;;;;;;;21.00;13.05;;;179.80;2048.00;;;;;;5095109;28;20028;-84
2021/03/17 08:42:27;;;;;;;21.85;12.70;;;179.90;2022.40;;;;;;5077637;28;20480;-86
2021/03/17 08:44:55;;;;;;;22.92;13.48;;;179.90;2022.40;;;;;;5095541;28;20020;-82
2021/03/17 08:47:35;;;;;;;18.05;12.05;;;179.80;2048.00;;;;;;5077150;28;20060;-84
2021/03/17 08:50:18;;;;;;;21.92;12.57;;;180.00;2022.40;;;;;;5094782;28;20021;-84
2021/03/17 08:52:55;;;;;;;21.17;12.02;;;179.90;2048.00;;;;;;5076689;28;20058;-83
2021/03/17 08:55:21;;;;;;;;;;;180.10;2022.40;;;;;;5074718;28;20020;-84
2021/03/17 08:57:59;;;;;;;19.58;12.10;;;205.00;2022.40;;;;;;5074212;28;19904;-84
2021/03/17 09:00:43;;;;;;;20.98;11.98;;;204.80;2048.00;;;;;;5076264;28;20024;-85
2021/03/17 09:03:10;;;;;;;19.52;11.75;;;205.10;2022.40;;;;;;5077203;28;20032;-83
2021/03/17 09:05:37;;;;;;;16.55;11.20;;;205.20;1996.80;;;;;;5076430;28;20028;-85
2021/03/17 09:08:10;;;;;;;18.42;11.27;;;205.20;1971.20;;;;;;5076781;28;20028;-87
2021/03/17 09:10:47;;;;;;;21.73;12.95;;;205.30;1971.20;;;;;;5076761;28;20028;-86
2021/03/17 09:13:15;;;;;;;18.85;12.38;;;205.50;1945.60;;;;;;5076164;28;20040;-86
2021/03/17 09:15:50;;;;;;;24.77;14.88;;;205.70;1945.60;;;;;;5075984;28;20036;-85
2021/03/17 09:18:20;;;;;;;24.40;14.05;;;205.70;1945.60;;;;;;5075993;28;20027;-82
2021/03/17 09:20:49;;;;;;;21.85;12.38;;;205.70;1920.00;;;;;;5076862;28;20016;-91
2021/03/17 09:23:25;;;;;;;19.23;11.38;;;230.50;1868.80;;;;;;5075500;28;20035;-89
2021/03/17 09:25:56;;;;;;;18.17;11.23;;;230.60;1843.20;;;;;;5073161;28;20082;-84
2021/03/17 09:28:34;;;;;;;21.13;12.20;;;230.40;1894.40;;;;;;5074062;28;20027;-83
2021/03/17 09:31:09;;;;;;;18.85;12.15;;;230.40;1894.40;;;;;;5074094;28;20036;-84
2021/03/17 09:33:40;;;;;;;17.65;12.65;;;230.70;1894.40;;;;;;5074827;28;20089;-84
2021/03/17 09:36:06;;;;;;;20.50;13.27;;;230.70;1868.80;;;;;;5073798;28;20095;-82
2021/03/17 09:38:33;;;;;;;;;;;230.90;1843.20;;;;;;5071573;28;20016;-83
2021/03/17 09:41:19;;;;;;;;;;;230.90;1843.20;;;;;;5073649;28;19903;-84
2021/03/17 09:43:53;;;;;;;18.20;11.75;;;230.80;1792.00;;;;;;5073807;28;19904;-82
2021/03/17 09:46:25;;;;;;;20.02;12.52;;;230.90;1766.40;;;;;;5070506;28;20111;-84
2021/03/17 09:48:53;;;;;;;19.05;12.30;;;231.10;1766.40;;;;;;5073874;28;20031;-83
2021/03/17 09:51:26;;;;;;;20.77;12.05;;;231.10;1792.00;;;;;;5085829;28;20020;-83
2021/03/17 09:53:53;;;;;;;17.30;10.68;;;231.00;1792.00;;;;;;5063563;28;20101;-84
2021/03/17 09:56:45;;;;;;;17.27;10.57;;;231.00;1715.20;;;;;;5073021;28;20038;-82
2021/03/17 09:59:38;;;;;;;15.98;8.70;;;230.90;1612.80;;;;;;5075466;28;20020;-81
2021/03/17 10:02:21;;;;;;;15.43;10.23;;;231.00;1561.60;;;;;;5088161;28;20121;-83
2021/03/17 10:04:52;;;;;;;16.65;7.15;;;230.90;1587.20;;;;;;5075151;28;20036;-84
2021/03/17 10:07:21;;;;;;;13.98;8.57;;;231.00;1459.20;;;;;;5075460;28;20071;-82
2021/03/17 10:09:48;;;;;;;15.93;8.48;;;231.20;1484.80;;;;;;5074774;28;20016;-80
2021/03/17 10:12:23;;;;;;;13.27;8.32;;;231.20;1459.20;;;;;;5069813;28;20032;-80
2021/03/17 10:14:50;;;;;;;16.70;9.02;;;231.30;1484.80;;;;;;5068349;28;20040;-83
2021/03/17 10:17:17;;;;;;;15.68;8.88;;;256.10;1459.20;;;;;;5073520;28;20131;-87
2021/03/17 10:19:48;;;;;;;16.17;8.48;;;231.30;1459.20;;;;;;5069749;28;20032;-83
2021/03/17 10:22:16;;;;;;;16.42;7.85;;;231.20;1408.00;;;;;;5073311;28;20024;-80
2021/03/17 10:24:50;;;;;;;19.55;10.18;;;256.00;1408.00;;;;;;5069748;28;20407;-82
2021/03/17 10:27:25;;;;;;;12.98;8.73;;;231.20;1459.20;;;;;;5074826;28;20040;-82
2021/03/17 10:29:58;;;;;;;13.63;8.88;;;231.20;1459.20;;;;;;5088648;28;20028;-87
2021/03/17 10:32:24;;;;;;;15.77;9.50;;;256.00;1433.60;;;;;;5072741;28;20047;-83
2021/03/17 10:34:51;;;;;;;;;;;256.00;1484.80;;;;;;5070533;28;20428;-83
2021/03/17 10:37:20;;;;;;;21.02;10.68;;;231.20;1484.80;;;;;;5097514;28;20355;-82
2021/03/17 10:39:50;;;;;;;14.55;7.50;;;256.10;1510.40;;;;;;5071624;28;20036;-82
2021/03/17 10:42:25;;;;;;;13.30;7.40;;;256.20;1459.20;;;;;;5097909;28;20031;-86
2021/03/17 10:45:12;;;;;;;13.57;7.88;;;231.30;1408.00;;;;;;5076884;28;20075;-86
2021/03/17 10:47:40;;;;;;;15.55;8.63;;;256.30;1382.40;;;;;;5077536;28;20040;-90
2021/03/17 10:50:08;;;;;;;15.60;8.82;;;256.20;1408.00;;;;;;5097807;28;20016;-81
2021/03/17 10:52:38;;;;;;;11.52;7.65;;;256.20;1408.00;;;;;;5078921;28;20040;-87
2021/03/17 10:55:21;;;;;;;15.63;7.43;;;256.20;1408.00;;;;;;5078987;28;20035;-83
2021/03/17 10:57:48;;;;;;;15.10;8.05;;;256.50;1356.80;;;;;;5077363;28;20029;-83
2021/03/17 11:00:22;;;;;;;15.20;8.85;;;256.40;1382.40;;;;;;5078673;28;20379;-80
2021/03/17 11:02:48;;;;;;;18.85;10.50;;;256.80;1356.80;;;;;;5075078;28;20032;-85
2021/03/17 11:05:26;;;;;;;21.50;9.80;;;256.80;1382.40;;;;;;5075827;28;20384;-83
2021/03/17 11:08:09;;;;;;;16.63;9.25;;;281.80;1331.20;;;;;;5075684;28;20044;-83
2021/03/17 11:10:55;;;;;;;14.23;8.10;;;282.20;1305.60;;;;;;5079109;28;20035;-83
2021/03/17 11:13:20;;;;;;;18.45;10.40;;;282.10;1331.20;;;;;;5073410;28;20036;-81
2021/03/17 11:15:50;;;;;;;;;;;282.40;1280.00;;;;;;5078082;28;20143;-82
2021/03/17 11:18:37;;;;;;;14.30;8.82;;;282.50;1280.00;;;;;;5078597;28;19912;-87
2021/03/17 11:21:07;;;;;;;;;;;282.30;1305.60;;;;;;5079445;28;20051;-83
2021/03/17 11:23:39;;;;;;;13.77;8.65;;;282.20;1254.40;;;;;;5078754;28;19904;-84
2021/03/17 11:26:07;;;;;;;26.75;9.70;;;282.40;1305.60;;;;;;5077396;28;20146;-87
2021/03/17 11:28:40;;;;;;;22.10;10.63;;;282.20;1305.60;;;;;;5091757;28;20093;-84
2021/03/17 11:31:11;;;;;;;21.05;10.23;;;281.70;1331.20;;;;;;5076932;28;20034;-82
2021/03/17 11:33:38;;;;;;;23.00;11.05;;;281.70;1331.20;;;;;;5075423;28;20021;-80
2021/03/17 11:36:06;;;;;;;15.40;10.00;;;282.40;1331.20;;;;;;5077113;28;20032;-81
2021/03/17 11:38:32;;;;;;;14.68;8.63;;;282.00;1331.20;;;;;;5077949;28;20028;-83
2021/03/17 11:40:59;;;;;;;16.25;8.82;;;282.20;1280.00;;;;;;5076089;28;20013;-82
2021/03/17 11:43:29;;;;;;;12.35;8.48;;;282.40;1280.00;;;;;;5077829;28;20024;-82
2021/03/17 11:45:56;;;;;;;14.15;8.52;;;282.50;1280.00;;;;;;5077030;28;20035;-82
2021/03/17 11:48:23;;;;;;;15.05;8.35;;;282.50;1254.40;;;;;;5074147;28;20039;-83
2021/03/17 11:50:51;;;;;;;22.98;12.98;;;282.20;1280.00;;;;;;5076849;28;20043;-82
2021/03/17 11:53:18;;;;;;;19.85;10.30;;;282.10;1305.60;;;;;;5087704;28;20059;-83
2021/03/17 11:55:45;;;;;;;16.10;9.88;;;282.00;1331.20;;;;;;5095729;28;20028;-83
2021/03/17 11:58:11;;;;;;;19.77;9.63;;;282.00;1305.60;;;;;;5076859;28;20036;-80
2021/03/17 12:00:38;;;;;;;12.05;8.30;;;281.80;1331.20;;;;;;5077108;28;20012;-80
2021/03/17 12:03:04;;;;;;;21.50;13.57;;;282.00;1305.60;;;;;;5076656;28;20032;-80
2021/03/17 12:05:30;;;;;;;15.52;10.07;;;281.90;1280.00;;;;;;5077071;28;20032;-81
2021/03/17 12:07:56;;;;;;;15.40;8.82;;;281.80;1305.60;;;;;;5077154;28;20090;-81
2021/03/17 12:10:23;;;;;;;15.05;8.85;;;282.10;1305.60;;;;;;5077143;28;20086;-81
2021/03/17 12:12:50;;;;;;;16.52;9.18;;;282.10;1305.60;;;;;;5076601;28;20121;-81
2021/03/17 12:15:18;;;;;;;15.30;8.20;;;282.00;1280.00;;;;;;5071647;28;20012;-82
2021/03/17 12:17:46;;;;;;;10.75;7.22;;;282.10;1280.00;;;;;;5077010;28;20023;-82
2021/03/17 12:20:13;;;;;;;16.48;9.02;;;281.70;1305.60;;;;;;5076299;28;20090;-81
2021/03/17 12:22:39;;;;;;;14.82;9.05;;;281.80;1305.60;;;;;;5075040;28;20020;-83
2021/03/17 12:25:07;;;;;;;13.77;9.18;;;256.70;1331.20;;;;;;5076878;28;20491;-81
2021/03/17 12:27:33;;;;;;;16.23;10.77;;;281.60;1356.80;;;;;;5076374;28;20028;-82
2021/03/17 12:29:59;;;;;;;15.60;9.18;;;281.70;1356.80;;;;;;5076867;28;20384;-80
2021/03/17 12:32:25;;;;;;;14.73;9.38;;;281.70;1356.80;;;;;;5076862;28;20480;-81